sensor_id;sensor_type;location;lat;lon;timestamp;P1;durP1;ratioP1;P2;durP2;ratioP2
10667;SDS011;5382;42.136;24.796;2023-04-01T00:01:41;6.15;;;4.47;;
10667;SDS011;5382;42.136;24.796;2023-04-01T00:04:08;6.55;;;4.47;;
10667;SDS011;5382;42.136;24.796;2023-04-01T00:06:35;6.55;;;4.47;;
10667;SDS011;5382;42.136;24.796;2023-04-01T00:09:01;8.13;;;4.38;;
10667;SDS011;5382;42.136;24.796;2023-04-01T00:11:28;6.65;;;4.45;;
10667;SDS011;5382;42.136;24.796;2023-04-01T00:13:55;9.73;;;4.35;;
10667;SDS011;5382;42.136;24.796;2023-04-01T00:16:22;6.25;;;4.00;;
10667;SDS011;5382;42.136;24.796;2023-04-01T00:18:50;6.78;;;4.22;;
10667;SDS011;5382;42.136;24.796;2023-04-01T00:21:18;5.40;;;4.75;;
10667;SDS011;5382;42.136;24.796;2023-04-01T00:23:46;7.93;;;4.20;;
10667;SDS011;5382;42.136;24.796;2023-04-01T00:26:13;7.00;;;4.28;;
10667;SDS011;5382;42.136;24.796;2023-04-01T00:28:44;6.60;;;4.90;;
10667;SDS011;5382;42.136;24.796;2023-04-01T00:31:11;10.95;;;5.63;;
10667;SDS011;5382;42.136;24.796;2023-04-01T00:33:38;7.38;;;5.20;;
10667;SDS011;5382;42.136;24.796;2023-04-01T00:36:08;8.88;;;5.10;;
10667;SDS011;5382;42.136;24.796;2023-04-01T00:38:36;6.53;;;5.05;;
10667;SDS011;5382;42.136;24.796;2023-04-01T00:41:04;6.65;;;4.75;;
10667;SDS011;5382;42.136;24.796;2023-04-01T00:43:32;6.45;;;5.80;;
10667;SDS011;5382;42.136;24.796;2023-04-01T00:46:00;7.30;;;5.53;;
10667;SDS011;5382;42.136;24.796;2023-04-01T00:48:27;7.15;;;5.82;;
10667;SDS011;5382;42.136;24.796;2023-04-01T00:50:58;6.95;;;5.25;;
10667;SDS011;5382;42.136;24.796;2023-04-01T00:53:30;6.80;;;5.53;;
10667;SDS011;5382;42.136;24.796;2023-04-01T00:56:00;8.00;;;5.93;;
10667;SDS011;5382;42.136;24.796;2023-04-01T00:58:31;8.60;;;5.75;;
10667;SDS011;5382;42.136;24.796;2023-04-01T01:01:02;7.90;;;5.35;;
10667;SDS011;5382;42.136;24.796;2023-04-01T01:03:30;7.30;;;5.00;;
10667;SDS011;5382;42.136;24.796;2023-04-01T01:06:05;5.53;;;4.10;;
10667;SDS011;5382;42.136;24.796;2023-04-01T01:11:36;6.07;;;4.45;;
10667;SDS011;5382;42.136;24.796;2023-04-01T01:14:08;5.60;;;5.00;;
10667;SDS011;5382;42.136;24.796;2023-04-01T01:16:42;7.93;;;5.47;;
10667;SDS011;5382;42.136;24.796;2023-04-01T01:19:18;6.78;;;5.63;;
10667;SDS011;5382;42.136;24.796;2023-04-01T01:22:11;6.70;;;5.43;;
10667;SDS011;5382;42.136;24.796;2023-04-01T01:24:59;7.97;;;4.40;;
10667;SDS011;5382;42.136;24.796;2023-04-01T01:27:40;7.13;;;4.32;;
10667;SDS011;5382;42.136;24.796;2023-04-01T01:30:17;5.35;;;4.47;;
10667;SDS011;5382;42.136;24.796;2023-04-01T01:35:48;6.50;;;4.38;;
10667;SDS011;5382;42.136;24.796;2023-04-01T01:38:18;5.30;;;4.25;;
10667;SDS011;5382;42.136;24.796;2023-04-01T01:40:48;5.53;;;4.68;;
10667;SDS011;5382;42.136;24.796;2023-04-01T01:43:19;6.40;;;5.10;;
10667;SDS011;5382;42.136;24.796;2023-04-01T01:45:51;7.90;;;4.57;;
10667;SDS011;5382;42.136;24.796;2023-04-01T01:48:21;7.60;;;5.50;;
10667;SDS011;5382;42.136;24.796;2023-04-01T01:50:51;6.82;;;4.38;;
10667;SDS011;5382;42.136;24.796;2023-04-01T01:53:19;7.47;;;5.43;;
10667;SDS011;5382;42.136;24.796;2023-04-01T01:55:46;6.38;;;4.80;;
10667;SDS011;5382;42.136;24.796;2023-04-01T01:58:14;7.07;;;5.25;;
10667;SDS011;5382;42.136;24.796;2023-04-01T02:00:46;8.80;;;5.60;;
10667;SDS011;5382;42.136;24.796;2023-04-01T02:03:16;6.85;;;5.30;;
10667;SDS011;5382;42.136;24.796;2023-04-01T02:05:46;7.53;;;5.18;;
10667;SDS011;5382;42.136;24.796;2023-04-01T02:08:16;8.57;;;5.30;;
10667;SDS011;5382;42.136;24.796;2023-04-01T02:10:49;8.30;;;4.95;;
10667;SDS011;5382;42.136;24.796;2023-04-01T02:13:24;5.82;;;4.63;;
10667;SDS011;5382;42.136;24.796;2023-04-01T02:15:56;11.60;;;5.00;;
10667;SDS011;5382;42.136;24.796;2023-04-01T02:18:27;8.63;;;4.72;;
10667;SDS011;5382;42.136;24.796;2023-04-01T02:20:56;9.70;;;4.80;;
10667;SDS011;5382;42.136;24.796;2023-04-01T02:23:26;11.93;;;6.45;;
10667;SDS011;5382;42.136;24.796;2023-04-01T02:25:54;8.13;;;6.70;;
10667;SDS011;5382;42.136;24.796;2023-04-01T02:28:21;6.53;;;5.75;;
10667;SDS011;5382;42.136;24.796;2023-04-01T02:30:50;6.25;;;5.32;;
10667;SDS011;5382;42.136;24.796;2023-04-01T02:33:18;8.88;;;5.63;;
10667;SDS011;5382;42.136;24.796;2023-04-01T02:35:46;6.63;;;5.22;;
10667;SDS011;5382;42.136;24.796;2023-04-01T02:38:13;9.05;;;6.32;;
10667;SDS011;5382;42.136;24.796;2023-04-01T02:40:44;10.02;;;6.35;;
10667;SDS011;5382;42.136;24.796;2023-04-01T02:43:12;8.98;;;6.05;;
10667;SDS011;5382;42.136;24.796;2023-04-01T02:45:39;8.90;;;5.35;;
10667;SDS011;5382;42.136;24.796;2023-04-01T02:48:06;11.30;;;6.32;;
10667;SDS011;5382;42.136;24.796;2023-04-01T02:50:33;8.45;;;6.70;;
10667;SDS011;5382;42.136;24.796;2023-04-01T02:53:00;10.00;;;6.50;;
10667;SDS011;5382;42.136;24.796;2023-04-01T02:55:28;9.60;;;6.22;;
10667;SDS011;5382;42.136;24.796;2023-04-01T02:57:57;9.93;;;7.13;;
10667;SDS011;5382;42.136;24.796;2023-04-01T03:00:24;8.70;;;7.28;;
10667;SDS011;5382;42.136;24.796;2023-04-01T03:02:51;10.57;;;6.63;;
10667;SDS011;5382;42.136;24.796;2023-04-01T03:05:18;15.75;;;9.15;;
10667;SDS011;5382;42.136;24.796;2023-04-01T03:07:46;17.73;;;9.85;;
10667;SDS011;5382;42.136;24.796;2023-04-01T03:10:13;15.60;;;9.05;;
10667;SDS011;5382;42.136;24.796;2023-04-01T03:12:40;13.02;;;8.88;;
10667;SDS011;5382;42.136;24.796;2023-04-01T03:15:10;13.32;;;9.02;;
10667;SDS011;5382;42.136;24.796;2023-04-01T03:17:37;12.13;;;8.45;;
10667;SDS011;5382;42.136;24.796;2023-04-01T03:20:04;15.02;;;8.52;;
10667;SDS011;5382;42.136;24.796;2023-04-01T03:22:33;13.80;;;8.90;;
10667;SDS011;5382;42.136;24.796;2023-04-01T03:25:00;19.02;;;9.40;;
10667;SDS011;5382;42.136;24.796;2023-04-01T03:27:28;16.08;;;8.63;;
10667;SDS011;5382;42.136;24.796;2023-04-01T03:29:54;11.18;;;7.55;;
10667;SDS011;5382;42.136;24.796;2023-04-01T03:32:23;11.80;;;7.20;;
10667;SDS011;5382;42.136;24.796;2023-04-01T03:34:49;21.98;;;8.57;;
10667;SDS011;5382;42.136;24.796;2023-04-01T03:37:16;12.90;;;8.15;;
10667;SDS011;5382;42.136;24.796;2023-04-01T03:39:43;10.43;;;8.13;;
10667;SDS011;5382;42.136;24.796;2023-04-01T03:42:10;15.88;;;9.15;;
10667;SDS011;5382;42.136;24.796;2023-04-01T03:44:37;12.48;;;8.75;;
10667;SDS011;5382;42.136;24.796;2023-04-01T03:47:04;13.32;;;8.60;;
10667;SDS011;5382;42.136;24.796;2023-04-01T03:49:32;14.45;;;8.00;;
10667;SDS011;5382;42.136;24.796;2023-04-01T03:51:59;14.77;;;9.80;;
10667;SDS011;5382;42.136;24.796;2023-04-01T03:54:26;10.80;;;8.57;;
10667;SDS011;5382;42.136;24.796;2023-04-01T03:56:53;16.27;;;8.25;;
10667;SDS011;5382;42.136;24.796;2023-04-01T03:59:20;13.50;;;9.20;;
10667;SDS011;5382;42.136;24.796;2023-04-01T04:01:47;14.30;;;8.20;;
10667;SDS011;5382;42.136;24.796;2023-04-01T04:04:13;12.13;;;7.45;;
10667;SDS011;5382;42.136;24.796;2023-04-01T04:06:42;12.77;;;7.45;;
10667;SDS011;5382;42.136;24.796;2023-04-01T04:09:09;10.07;;;6.20;;
10667;SDS011;5382;42.136;24.796;2023-04-01T04:11:35;8.05;;;5.22;;
10667;SDS011;5382;42.136;24.796;2023-04-01T04:14:02;8.95;;;6.22;;
10667;SDS011;5382;42.136;24.796;2023-04-01T04:16:29;9.80;;;6.13;;
10667;SDS011;5382;42.136;24.796;2023-04-01T04:18:56;8.40;;;6.43;;
10667;SDS011;5382;42.136;24.796;2023-04-01T04:21:23;15.30;;;7.20;;
10667;SDS011;5382;42.136;24.796;2023-04-01T04:23:54;9.60;;;5.25;;
10667;SDS011;5382;42.136;24.796;2023-04-01T04:26:20;7.97;;;6.03;;
10667;SDS011;5382;42.136;24.796;2023-04-01T04:28:47;8.50;;;5.72;;
10667;SDS011;5382;42.136;24.796;2023-04-01T04:31:17;11.13;;;5.60;;
10667;SDS011;5382;42.136;24.796;2023-04-01T04:33:45;9.15;;;4.85;;
10667;SDS011;5382;42.136;24.796;2023-04-01T04:36:12;7.15;;;4.65;;
10667;SDS011;5382;42.136;24.796;2023-04-01T04:38:39;8.00;;;5.53;;
10667;SDS011;5382;42.136;24.796;2023-04-01T04:41:09;7.28;;;5.07;;
10667;SDS011;5382;42.136;24.796;2023-04-01T04:43:37;6.95;;;5.05;;
10667;SDS011;5382;42.136;24.796;2023-04-01T04:46:05;6.88;;;4.72;;
10667;SDS011;5382;42.136;24.796;2023-04-01T04:48:32;7.47;;;4.80;;
10667;SDS011;5382;42.136;24.796;2023-04-01T04:50:59;7.68;;;4.20;;
10667;SDS011;5382;42.136;24.796;2023-04-01T04:53:26;9.07;;;5.57;;
10667;SDS011;5382;42.136;24.796;2023-04-01T04:55:53;12.13;;;5.45;;
10667;SDS011;5382;42.136;24.796;2023-04-01T04:58:21;7.60;;;5.00;;
10667;SDS011;5382;42.136;24.796;2023-04-01T05:00:48;12.10;;;5.32;;
10667;SDS011;5382;42.136;24.796;2023-04-01T05:03:15;9.52;;;5.75;;
10667;SDS011;5382;42.136;24.796;2023-04-01T05:05:47;10.25;;;5.20;;
10667;SDS011;5382;42.136;24.796;2023-04-01T05:08:16;9.40;;;5.47;;
10667;SDS011;5382;42.136;24.796;2023-04-01T05:10:42;6.80;;;4.45;;
10667;SDS011;5382;42.136;24.796;2023-04-01T05:13:10;10.63;;;5.53;;
10667;SDS011;5382;42.136;24.796;2023-04-01T05:15:38;8.52;;;5.43;;
10667;SDS011;5382;42.136;24.796;2023-04-01T05:18:05;8.75;;;6.00;;
10667;SDS011;5382;42.136;24.796;2023-04-01T05:20:32;8.45;;;6.60;;
10667;SDS011;5382;42.136;24.796;2023-04-01T05:22:59;10.73;;;5.93;;
10667;SDS011;5382;42.136;24.796;2023-04-01T05:25:26;10.70;;;6.93;;
10667;SDS011;5382;42.136;24.796;2023-04-01T05:27:53;14.82;;;8.48;;
10667;SDS011;5382;42.136;24.796;2023-04-01T05:30:20;13.45;;;8.48;;
10667;SDS011;5382;42.136;24.796;2023-04-01T05:32:48;11.32;;;8.02;;
10667;SDS011;5382;42.136;24.796;2023-04-01T05:35:15;11.43;;;7.30;;
10667;SDS011;5382;42.136;24.796;2023-04-01T05:37:42;12.18;;;7.45;;
10667;SDS011;5382;42.136;24.796;2023-04-01T05:40:09;13.60;;;7.55;;
10667;SDS011;5382;42.136;24.796;2023-04-01T05:42:36;10.35;;;6.78;;
10667;SDS011;5382;42.136;24.796;2023-04-01T05:45:03;13.27;;;7.30;;
10667;SDS011;5382;42.136;24.796;2023-04-01T05:47:30;10.18;;;8.15;;
10667;SDS011;5382;42.136;24.796;2023-04-01T05:49:59;13.90;;;8.02;;
10667;SDS011;5382;42.136;24.796;2023-04-01T05:52:26;10.05;;;7.50;;
10667;SDS011;5382;42.136;24.796;2023-04-01T05:54:53;13.05;;;8.05;;
10667;SDS011;5382;42.136;24.796;2023-04-01T05:57:19;8.82;;;7.25;;
10667;SDS011;5382;42.136;24.796;2023-04-01T05:59:46;10.77;;;7.93;;
10667;SDS011;5382;42.136;24.796;2023-04-01T06:02:13;8.05;;;6.10;;
10667;SDS011;5382;42.136;24.796;2023-04-01T06:04:43;12.52;;;7.25;;
10667;SDS011;5382;42.136;24.796;2023-04-01T06:07:12;11.55;;;8.32;;
10667;SDS011;5382;42.136;24.796;2023-04-01T06:09:40;10.07;;;6.70;;
10667;SDS011;5382;42.136;24.796;2023-04-01T06:12:16;10.00;;;6.68;;
10667;SDS011;5382;42.136;24.796;2023-04-01T06:15:00;8.48;;;6.10;;
10667;SDS011;5382;42.136;24.796;2023-04-01T06:17:45;9.95;;;7.13;;
10667;SDS011;5382;42.136;24.796;2023-04-01T06:20:26;8.45;;;6.75;;
10667;SDS011;5382;42.136;24.796;2023-04-01T06:23:02;8.85;;;6.43;;
10667;SDS011;5382;42.136;24.796;2023-04-01T06:25:45;11.02;;;6.40;;
10667;SDS011;5382;42.136;24.796;2023-04-01T06:31:16;8.55;;;6.32;;
10667;SDS011;5382;42.136;24.796;2023-04-01T06:33:58;8.00;;;6.00;;
10667;SDS011;5382;42.136;24.796;2023-04-01T06:42:44;6.28;;;5.43;;
10667;SDS011;5382;42.136;24.796;2023-04-01T06:45:28;10.10;;;5.78;;
10667;SDS011;5382;42.136;24.796;2023-04-01T06:48:06;11.20;;;5.95;;
10667;SDS011;5382;42.136;24.796;2023-04-01T06:50:47;10.48;;;5.95;;
10667;SDS011;5382;42.136;24.796;2023-04-01T06:53:21;10.73;;;6.20;;
10667;SDS011;5382;42.136;24.796;2023-04-01T06:55:57;5.43;;;4.93;;
10667;SDS011;5382;42.136;24.796;2023-04-01T06:58:30;5.80;;;5.20;;
10667;SDS011;5382;42.136;24.796;2023-04-01T07:01:02;9.02;;;4.45;;
10667;SDS011;5382;42.136;24.796;2023-04-01T07:03:32;10.23;;;5.88;;
10667;SDS011;5382;42.136;24.796;2023-04-01T07:06:03;8.13;;;5.70;;
10667;SDS011;5382;42.136;24.796;2023-04-01T07:08:31;8.43;;;5.60;;
10667;SDS011;5382;42.136;24.796;2023-04-01T07:11:02;8.57;;;4.82;;
10667;SDS011;5382;42.136;24.796;2023-04-01T07:13:32;9.68;;;5.40;;
10667;SDS011;5382;42.136;24.796;2023-04-01T07:16:08;9.57;;;5.47;;
10667;SDS011;5382;42.136;24.796;2023-04-01T07:18:41;5.57;;;4.40;;
10667;SDS011;5382;42.136;24.796;2023-04-01T07:21:15;7.30;;;4.50;;
10667;SDS011;5382;42.136;24.796;2023-04-01T07:23:51;7.90;;;5.78;;
10667;SDS011;5382;42.136;24.796;2023-04-01T07:26:21;8.30;;;5.65;;
10667;SDS011;5382;42.136;24.796;2023-04-01T07:28:52;37.30;;;7.70;;
10667;SDS011;5382;42.136;24.796;2023-04-01T07:31:24;8.07;;;5.90;;
10667;SDS011;5382;42.136;24.796;2023-04-01T07:33:58;6.85;;;4.38;;
10667;SDS011;5382;42.136;24.796;2023-04-01T07:36:33;7.97;;;5.30;;
10667;SDS011;5382;42.136;24.796;2023-04-01T07:39:08;8.45;;;5.10;;
10667;SDS011;5382;42.136;24.796;2023-04-01T07:41:44;13.48;;;4.63;;
10667;SDS011;5382;42.136;24.796;2023-04-01T07:44:20;9.00;;;4.65;;
10667;SDS011;5382;42.136;24.796;2023-04-01T07:47:05;7.35;;;4.43;;
10667;SDS011;5382;42.136;24.796;2023-04-01T07:49:42;5.88;;;5.10;;
10667;SDS011;5382;42.136;24.796;2023-04-01T07:52:16;8.57;;;5.35;;
10667;SDS011;5382;42.136;24.796;2023-04-01T07:54:52;8.13;;;5.28;;
10667;SDS011;5382;42.136;24.796;2023-04-01T07:57:25;10.98;;;5.38;;
10667;SDS011;5382;42.136;24.796;2023-04-01T08:00:04;8.75;;;4.95;;
10667;SDS011;5382;42.136;24.796;2023-04-01T08:02:40;9.80;;;4.97;;
10667;SDS011;5382;42.136;24.796;2023-04-01T08:05:19;9.98;;;5.45;;
10667;SDS011;5382;42.136;24.796;2023-04-01T08:07:53;7.07;;;5.18;;
10667;SDS011;5382;42.136;24.796;2023-04-01T08:10:32;6.07;;;5.00;;
10667;SDS011;5382;42.136;24.796;2023-04-01T08:13:06;6.43;;;5.20;;
10667;SDS011;5382;42.136;24.796;2023-04-01T08:15:45;7.75;;;5.28;;
10667;SDS011;5382;42.136;24.796;2023-04-01T08:18:20;9.20;;;5.68;;
10667;SDS011;5382;42.136;24.796;2023-04-01T08:20:57;7.10;;;5.18;;
10667;SDS011;5382;42.136;24.796;2023-04-01T08:23:27;9.93;;;5.50;;
10667;SDS011;5382;42.136;24.796;2023-04-01T08:25:58;7.07;;;5.00;;
10667;SDS011;5382;42.136;24.796;2023-04-01T08:28:32;7.70;;;5.25;;
10667;SDS011;5382;42.136;24.796;2023-04-01T08:31:05;9.10;;;6.40;;
10667;SDS011;5382;42.136;24.796;2023-04-01T08:33:35;18.23;;;5.53;;
10667;SDS011;5382;42.136;24.796;2023-04-01T08:36:05;10.15;;;5.93;;
10667;SDS011;5382;42.136;24.796;2023-04-01T08:38:38;8.43;;;5.55;;
10667;SDS011;5382;42.136;24.796;2023-04-01T08:41:26;11.90;;;6.30;;
10667;SDS011;5382;42.136;24.796;2023-04-01T08:47:14;6.20;;;5.60;;
10667;SDS011;5382;42.136;24.796;2023-04-01T08:50:09;11.75;;;5.90;;
10667;SDS011;5382;42.136;24.796;2023-04-01T08:52:50;13.75;;;5.60;;
10667;SDS011;5382;42.136;24.796;2023-04-01T08:55:31;12.85;;;6.15;;
10667;SDS011;5382;42.136;24.796;2023-04-01T08:58:11;6.63;;;5.05;;
10667;SDS011;5382;42.136;24.796;2023-04-01T09:01:10;10.45;;;5.45;;
10667;SDS011;5382;42.136;24.796;2023-04-01T09:04:01;10.48;;;5.40;;
10667;SDS011;5382;42.136;24.796;2023-04-01T09:06:49;7.05;;;4.85;;
10667;SDS011;5382;42.136;24.796;2023-04-01T09:09:36;12.43;;;6.03;;
10667;SDS011;5382;42.136;24.796;2023-04-01T09:12:24;10.00;;;5.22;;
10667;SDS011;5382;42.136;24.796;2023-04-01T09:15:16;8.32;;;5.53;;
10667;SDS011;5382;42.136;24.796;2023-04-01T09:18:13;9.88;;;5.10;;
10667;SDS011;5382;42.136;24.796;2023-04-01T09:20:59;7.50;;;5.25;;
10667;SDS011;5382;42.136;24.796;2023-04-01T09:23:53;13.40;;;5.50;;
10667;SDS011;5382;42.136;24.796;2023-04-01T09:26:44;9.23;;;5.55;;
10667;SDS011;5382;42.136;24.796;2023-04-01T09:29:31;9.93;;;5.32;;
10667;SDS011;5382;42.136;24.796;2023-04-01T09:32:17;10.38;;;5.95;;
10667;SDS011;5382;42.136;24.796;2023-04-01T09:35:10;8.07;;;6.07;;
10667;SDS011;5382;42.136;24.796;2023-04-01T09:37:53;7.32;;;5.60;;
10667;SDS011;5382;42.136;24.796;2023-04-01T09:40:31;8.38;;;6.35;;
10667;SDS011;5382;42.136;24.796;2023-04-01T09:43:06;7.60;;;5.35;;
10667;SDS011;5382;42.136;24.796;2023-04-01T09:45:53;10.32;;;5.72;;
10667;SDS011;5382;42.136;24.796;2023-04-01T09:48:39;10.70;;;6.35;;
10667;SDS011;5382;42.136;24.796;2023-04-01T09:51:26;8.57;;;5.78;;
10667;SDS011;5382;42.136;24.796;2023-04-01T09:54:07;11.23;;;6.03;;
10667;SDS011;5382;42.136;24.796;2023-04-01T10:00:02;6.78;;;5.57;;
10667;SDS011;5382;42.136;24.796;2023-04-01T10:03:07;7.90;;;5.55;;
10667;SDS011;5382;42.136;24.796;2023-04-01T10:06:11;9.80;;;5.50;;
10667;SDS011;5382;42.136;24.796;2023-04-01T10:18:08;9.73;;;5.68;;
10667;SDS011;5382;42.136;24.796;2023-04-01T10:27:30;7.38;;;5.35;;
10667;SDS011;5382;42.136;24.796;2023-04-01T10:30:21;9.05;;;5.35;;
10667;SDS011;5382;42.136;24.796;2023-04-01T10:36:01;8.60;;;5.32;;
10667;SDS011;5382;42.136;24.796;2023-04-01T10:42:00;9.30;;;5.30;;
10667;SDS011;5382;42.136;24.796;2023-04-01T10:45:02;5.90;;;5.20;;
10667;SDS011;5382;42.136;24.796;2023-04-01T10:48:02;7.60;;;5.47;;
10667;SDS011;5382;42.136;24.796;2023-04-01T10:53:45;10.48;;;5.47;;
10667;SDS011;5382;42.136;24.796;2023-04-01T10:56:34;9.43;;;5.50;;
10667;SDS011;5382;42.136;24.796;2023-04-01T10:59:14;9.80;;;5.50;;
10667;SDS011;5382;42.136;24.796;2023-04-01T11:05:30;6.65;;;5.03;;
10667;SDS011;5382;42.136;24.796;2023-04-01T11:14:29;6.85;;;4.63;;
10667;SDS011;5382;42.136;24.796;2023-04-01T11:17:17;5.35;;;4.70;;
10667;SDS011;5382;42.136;24.796;2023-04-01T11:20:22;9.20;;;4.88;;
10667;SDS011;5382;42.136;24.796;2023-04-01T11:23:10;8.25;;;4.88;;
10667;SDS011;5382;42.136;24.796;2023-04-01T11:25:51;8.13;;;4.50;;
10667;SDS011;5382;42.136;24.796;2023-04-01T11:28:35;8.80;;;4.65;;
10667;SDS011;5382;42.136;24.796;2023-04-01T11:31:20;6.70;;;4.72;;
10667;SDS011;5382;42.136;24.796;2023-04-01T11:33:57;7.57;;;4.78;;
10667;SDS011;5382;42.136;24.796;2023-04-01T11:36:36;6.10;;;4.78;;
10667;SDS011;5382;42.136;24.796;2023-04-01T11:39:13;5.75;;;4.78;;
10667;SDS011;5382;42.136;24.796;2023-04-01T11:41:50;9.32;;;4.82;;
10667;SDS011;5382;42.136;24.796;2023-04-01T11:44:23;6.38;;;4.88;;
10667;SDS011;5382;42.136;24.796;2023-04-01T11:47:06;7.53;;;4.57;;
10667;SDS011;5382;42.136;24.796;2023-04-01T11:49:49;7.65;;;4.55;;
10667;SDS011;5382;42.136;24.796;2023-04-01T11:52:37;7.82;;;4.45;;
10667;SDS011;5382;42.136;24.796;2023-04-01T11:55:24;7.93;;;4.50;;
10667;SDS011;5382;42.136;24.796;2023-04-01T11:58:03;9.02;;;4.70;;
10667;SDS011;5382;42.136;24.796;2023-04-01T12:03:53;8.57;;;5.47;;
10667;SDS011;5382;42.136;24.796;2023-04-01T12:06:33;9.40;;;6.05;;
10667;SDS011;5382;42.136;24.796;2023-04-01T12:09:12;9.43;;;5.35;;
10667;SDS011;5382;42.136;24.796;2023-04-01T12:11:45;7.03;;;5.10;;
10667;SDS011;5382;42.136;24.796;2023-04-01T12:14:19;8.90;;;5.18;;
10667;SDS011;5382;42.136;24.796;2023-04-01T12:16:59;10.52;;;5.63;;
10667;SDS011;5382;42.136;24.796;2023-04-01T12:19:35;9.73;;;5.70;;
10667;SDS011;5382;42.136;24.796;2023-04-01T12:22:21;8.98;;;5.82;;
10667;SDS011;5382;42.136;24.796;2023-04-01T12:24:59;9.00;;;5.70;;
10667;SDS011;5382;42.136;24.796;2023-04-01T12:27:43;6.28;;;5.38;;
10667;SDS011;5382;42.136;24.796;2023-04-01T12:33:36;10.05;;;5.47;;
10667;SDS011;5382;42.136;24.796;2023-04-01T12:36:19;10.82;;;5.13;;
10667;SDS011;5382;42.136;24.796;2023-04-01T12:39:06;8.70;;;5.68;;
10667;SDS011;5382;42.136;24.796;2023-04-01T12:41:52;9.48;;;5.60;;
10667;SDS011;5382;42.136;24.796;2023-04-01T12:44:32;10.35;;;6.03;;
10667;SDS011;5382;42.136;24.796;2023-04-01T12:53:12;8.90;;;4.63;;
10667;SDS011;5382;42.136;24.796;2023-04-01T12:55:51;12.10;;;4.93;;
10667;SDS011;5382;42.136;24.796;2023-04-01T12:58:27;13.05;;;4.82;;
10667;SDS011;5382;42.136;24.796;2023-04-01T13:01:29;11.32;;;4.95;;
10667;SDS011;5382;42.136;24.796;2023-04-01T13:10:13;10.43;;;6.35;;
10667;SDS011;5382;42.136;24.796;2023-04-01T13:13:00;7.53;;;4.25;;
10667;SDS011;5382;42.136;24.796;2023-04-01T13:15:45;7.05;;;4.32;;
10667;SDS011;5382;42.136;24.796;2023-04-01T13:18:20;10.68;;;4.00;;
10667;SDS011;5382;42.136;24.796;2023-04-01T13:20:56;9.93;;;3.97;;
10667;SDS011;5382;42.136;24.796;2023-04-01T13:23:38;8.10;;;3.80;;
10667;SDS011;5382;42.136;24.796;2023-04-01T13:26:18;8.50;;;4.20;;
10667;SDS011;5382;42.136;24.796;2023-04-01T13:28:52;10.10;;;4.70;;
10667;SDS011;5382;42.136;24.796;2023-04-01T13:31:32;8.93;;;4.38;;
10667;SDS011;5382;42.136;24.796;2023-04-01T13:34:09;6.13;;;4.70;;
10667;SDS011;5382;42.136;24.796;2023-04-01T13:36:53;9.13;;;4.93;;
10667;SDS011;5382;42.136;24.796;2023-04-01T13:39:33;10.82;;;5.40;;
10667;SDS011;5382;42.136;24.796;2023-04-01T13:42:12;12.00;;;6.07;;
10667;SDS011;5382;42.136;24.796;2023-04-01T13:44:46;10.70;;;6.22;;
10667;SDS011;5382;42.136;24.796;2023-04-01T13:53:40;14.90;;;6.72;;
10667;SDS011;5382;42.136;24.796;2023-04-01T13:56:29;11.00;;;6.82;;
10667;SDS011;5382;42.136;24.796;2023-04-01T14:02:14;9.88;;;6.07;;
10667;SDS011;5382;42.136;24.796;2023-04-01T14:05:00;8.48;;;5.57;;
10667;SDS011;5382;42.136;24.796;2023-04-01T14:07:49;8.40;;;4.50;;
10667;SDS011;5382;42.136;24.796;2023-04-01T14:10:30;8.45;;;4.22;;
10667;SDS011;5382;42.136;24.796;2023-04-01T14:13:02;10.15;;;4.38;;
10667;SDS011;5382;42.136;24.796;2023-04-01T14:15:39;5.20;;;3.83;;
10667;SDS011;5382;42.136;24.796;2023-04-01T14:18:19;5.53;;;3.05;;
10667;SDS011;5382;42.136;24.796;2023-04-01T14:21:05;4.55;;;2.90;;
10667;SDS011;5382;42.136;24.796;2023-04-01T14:23:51;4.88;;;2.85;;
10667;SDS011;5382;42.136;24.796;2023-04-01T14:29:27;8.48;;;3.47;;
10667;SDS011;5382;42.136;24.796;2023-04-01T14:32:06;6.63;;;3.50;;
10667;SDS011;5382;42.136;24.796;2023-04-01T14:34:45;7.35;;;3.95;;
10667;SDS011;5382;42.136;24.796;2023-04-01T14:37:30;10.90;;;4.40;;
10667;SDS011;5382;42.136;24.796;2023-04-01T14:40:16;5.68;;;4.03;;
10667;SDS011;5382;42.136;24.796;2023-04-01T14:48:48;4.60;;;3.00;;
10667;SDS011;5382;42.136;24.796;2023-04-01T14:51:18;3.35;;;2.85;;
10667;SDS011;5382;42.136;24.796;2023-04-01T14:53:58;3.95;;;2.90;;
10667;SDS011;5382;42.136;24.796;2023-04-01T14:56:39;3.35;;;2.80;;
10667;SDS011;5382;42.136;24.796;2023-04-01T14:59:08;6.53;;;3.40;;
10667;SDS011;5382;42.136;24.796;2023-04-01T15:01:41;5.28;;;2.92;;
10667;SDS011;5382;42.136;24.796;2023-04-01T15:10:10;4.75;;;2.35;;
10667;SDS011;5382;42.136;24.796;2023-04-01T15:12:46;5.35;;;2.60;;
10667;SDS011;5382;42.136;24.796;2023-04-01T15:15:23;4.22;;;2.35;;
10667;SDS011;5382;42.136;24.796;2023-04-01T15:18:08;2.45;;;1.88;;
10667;SDS011;5382;42.136;24.796;2023-04-01T15:20:41;3.67;;;2.13;;
10667;SDS011;5382;42.136;24.796;2023-04-01T15:23:35;18.45;;;12.80;;
10667;SDS011;5382;42.136;24.796;2023-04-01T15:26:19;2.65;;;2.00;;
10667;SDS011;5382;42.136;24.796;2023-04-01T15:28:56;2.75;;;2.17;;
10667;SDS011;5382;42.136;24.796;2023-04-01T15:31:37;3.67;;;2.00;;
10667;SDS011;5382;42.136;24.796;2023-04-01T15:34:18;5.80;;;2.88;;
10667;SDS011;5382;42.136;24.796;2023-04-01T15:36:53;5.47;;;2.67;;
10667;SDS011;5382;42.136;24.796;2023-04-01T15:39:29;4.07;;;2.60;;
10667;SDS011;5382;42.136;24.796;2023-04-01T15:45:02;4.35;;;2.70;;
10667;SDS011;5382;42.136;24.796;2023-04-01T15:47:39;6.45;;;4.13;;
10667;SDS011;5382;42.136;24.796;2023-04-01T15:50:19;5.07;;;3.28;;
10667;SDS011;5382;42.136;24.796;2023-04-01T15:53:09;2.80;;;2.50;;
10667;SDS011;5382;42.136;24.796;2023-04-01T15:55:48;4.82;;;2.92;;
10667;SDS011;5382;42.136;24.796;2023-04-01T15:58:36;4.80;;;3.38;;
10667;SDS011;5382;42.136;24.796;2023-04-01T16:01:15;12.55;;;9.95;;
10667;SDS011;5382;42.136;24.796;2023-04-01T16:03:52;4.35;;;2.42;;
10667;SDS011;5382;42.136;24.796;2023-04-01T16:06:42;4.63;;;2.75;;
10667;SDS011;5382;42.136;24.796;2023-04-01T16:09:23;3.70;;;2.45;;
10667;SDS011;5382;42.136;24.796;2023-04-01T16:12:11;6.78;;;3.10;;
10667;SDS011;5382;42.136;24.796;2023-04-01T16:14:48;5.97;;;2.92;;
10667;SDS011;5382;42.136;24.796;2023-04-01T16:17:49;6.78;;;2.95;;
10667;SDS011;5382;42.136;24.796;2023-04-01T16:20:34;7.78;;;3.17;;
10667;SDS011;5382;42.136;24.796;2023-04-01T16:23:13;8.75;;;4.47;;
10667;SDS011;5382;42.136;24.796;2023-04-01T16:25:49;5.28;;;2.83;;
10667;SDS011;5382;42.136;24.796;2023-04-01T16:28:24;4.35;;;3.17;;
10667;SDS011;5382;42.136;24.796;2023-04-01T16:30:58;3.97;;;3.17;;
10667;SDS011;5382;42.136;24.796;2023-04-01T16:33:32;3.42;;;2.40;;
10667;SDS011;5382;42.136;24.796;2023-04-01T16:36:09;4.85;;;2.65;;
10667;SDS011;5382;42.136;24.796;2023-04-01T16:38:45;4.57;;;2.67;;
10667;SDS011;5382;42.136;24.796;2023-04-01T16:41:18;4.60;;;2.95;;
10667;SDS011;5382;42.136;24.796;2023-04-01T16:43:50;4.93;;;2.97;;
10667;SDS011;5382;42.136;24.796;2023-04-01T16:49:23;4.68;;;3.10;;
10667;SDS011;5382;42.136;24.796;2023-04-01T16:52:15;4.20;;;3.30;;
10667;SDS011;5382;42.136;24.796;2023-04-01T16:54:56;3.70;;;2.38;;
10667;SDS011;5382;42.136;24.796;2023-04-01T16:57:30;4.25;;;2.92;;
10667;SDS011;5382;42.136;24.796;2023-04-01T17:00:15;3.75;;;2.17;;
10667;SDS011;5382;42.136;24.796;2023-04-01T17:02:46;4.28;;;3.20;;
10667;SDS011;5382;42.136;24.796;2023-04-01T17:05:18;5.85;;;2.53;;
10667;SDS011;5382;42.136;24.796;2023-04-01T17:08:01;4.35;;;2.80;;
10667;SDS011;5382;42.136;24.796;2023-04-01T17:10:38;5.38;;;3.50;;
10667;SDS011;5382;42.136;24.796;2023-04-01T17:13:19;4.97;;;3.35;;
10667;SDS011;5382;42.136;24.796;2023-04-01T17:15:58;4.60;;;2.33;;
10667;SDS011;5382;42.136;24.796;2023-04-01T17:18:42;4.15;;;2.85;;